sensor_id;sensor_type;location;lat;lon;timestamp;temperature;humidity
11304;DHT22;5707;49.588;12.148;2022-09-23T00:00:59;1.20;99.90
11304;DHT22;5707;49.588;12.148;2022-09-23T00:03:41;1.30;99.90
11304;DHT22;5707;49.588;12.148;2022-09-23T00:06:24;1.40;99.90
11304;DHT22;5707;49.588;12.148;2022-09-23T00:09:05;1.30;99.90
11304;DHT22;5707;49.588;12.148;2022-09-23T00:11:45;1.40;99.90
11304;DHT22;5707;49.588;12.148;2022-09-23T00:14:25;1.50;99.90
11304;DHT22;5707;49.588;12.148;2022-09-23T00:17:04;1.50;99.90
11304;DHT22;5707;49.588;12.148;2022-09-23T00:19:44;1.60;99.90
11304;DHT22;5707;49.588;12.148;2022-09-23T00:22:26;1.60;99.90
11304;DHT22;5707;49.588;12.148;2022-09-23T00:25:06;1.60;99.90
11304;DHT22;5707;49.588;12.148;2022-09-23T00:27:47;1.60;99.90
11304;DHT22;5707;49.588;12.148;2022-09-23T00:30:27;1.50;99.90
11304;DHT22;5707;49.588;12.148;2022-09-23T00:33:07;1.40;99.90
11304;DHT22;5707;49.588;12.148;2022-09-23T00:35:46;1.30;99.90
11304;DHT22;5707;49.588;12.148;2022-09-23T00:38:28;1.30;99.90
11304;DHT22;5707;49.588;12.148;2022-09-23T00:41:27;1.40;99.90
11304;DHT22;5707;49.588;12.148;2022-09-23T00:47:01;1.40;99.90
11304;DHT22;5707;49.588;12.148;2022-09-23T00:49:41;1.30;99.90
11304;DHT22;5707;49.588;12.148;2022-09-23T00:52:22;1.20;99.90
11304;DHT22;5707;49.588;12.148;2022-09-23T00:55:05;1.20;99.90
11304;DHT22;5707;49.588;12.148;2022-09-23T00:57:45;1.10;99.90
11304;DHT22;5707;49.588;12.148;2022-09-23T01:00:27;1.00;99.90
11304;DHT22;5707;49.588;12.148;2022-09-23T01:03:06;0.90;99.90
11304;DHT22;5707;49.588;12.148;2022-09-23T01:05:46;0.90;99.90
11304;DHT22;5707;49.588;12.148;2022-09-23T01:08:26;1.00;99.90
11304;DHT22;5707;49.588;12.148;2022-09-23T01:11:09;1.10;99.90
11304;DHT22;5707;49.588;12.148;2022-09-23T01:13:54;1.10;99.90
11304;DHT22;5707;49.588;12.148;2022-09-23T01:16:39;1.20;99.90
11304;DHT22;5707;49.588;12.148;2022-09-23T01:19:26;1.30;99.90
11304;DHT22;5707;49.588;12.148;2022-09-23T01:22:09;1.40;99.90
11304;DHT22;5707;49.588;12.148;2022-09-23T01:25:04;1.40;99.90
11304;DHT22;5707;49.588;12.148;2022-09-23T01:27:54;1.40;99.90
11304;DHT22;5707;49.588;12.148;2022-09-23T01:30:43;1.30;99.90
11304;DHT22;5707;49.588;12.148;2022-09-23T01:33:27;1.30;99.90
11304;DHT22;5707;49.588;12.148;2022-09-23T01:36:14;1.30;99.90
11304;DHT22;5707;49.588;12.148;2022-09-23T01:38:59;1.30;99.90
11304;DHT22;5707;49.588;12.148;2022-09-23T01:41:45;1.30;99.90
11304;DHT22;5707;49.588;12.148;2022-09-23T01:44:29;1.30;99.90
11304;DHT22;5707;49.588;12.148;2022-09-23T01:47:12;1.20;99.90
11304;DHT22;5707;49.588;12.148;2022-09-23T01:49:56;1.10;99.90
11304;DHT22;5707;49.588;12.148;2022-09-23T01:52:38;1.10;99.90
11304;DHT22;5707;49.588;12.148;2022-09-23T01:55:20;1.10;99.90
11304;DHT22;5707;49.588;12.148;2022-09-23T01:58:05;1.20;99.90
11304;DHT22;5707;49.588;12.148;2022-09-23T02:00:48;1.30;99.90
11304;DHT22;5707;49.588;12.148;2022-09-23T02:03:31;1.30;99.90
11304;DHT22;5707;49.588;12.148;2022-09-23T02:06:26;1.30;99.90
11304;DHT22;5707;49.588;12.148;2022-09-23T02:09:08;1.20;99.90
11304;DHT22;5707;49.588;12.148;2022-09-23T02:11:51;1.20;99.90
11304;DHT22;5707;49.588;12.148;2022-09-23T02:14:34;1.30;99.90
11304;DHT22;5707;49.588;12.148;2022-09-23T02:17:18;1.20;99.90
11304;DHT22;5707;49.588;12.148;2022-09-23T02:20:03;1.20;99.90
11304;DHT22;5707;49.588;12.148;2022-09-23T02:22:46;1.00;99.90
11304;DHT22;5707;49.588;12.148;2022-09-23T02:25:28;1.00;99.90
11304;DHT22;5707;49.588;12.148;2022-09-23T02:28:12;1.10;99.90
11304;DHT22;5707;49.588;12.148;2022-09-23T02:30:56;1.10;99.90
11304;DHT22;5707;49.588;12.148;2022-09-23T02:33:40;1.10;99.90
11304;DHT22;5707;49.588;12.148;2022-09-23T02:36:23;1.00;99.90
11304;DHT22;5707;49.588;12.148;2022-09-23T02:39:07;1.00;99.90
11304;DHT22;5707;49.588;12.148;2022-09-23T02:41:54;1.00;99.90
11304;DHT22;5707;49.588;12.148;2022-09-23T02:44:35;0.90;99.90
11304;DHT22;5707;49.588;12.148;2022-09-23T02:47:15;0.80;99.90
11304;DHT22;5707;49.588;12.148;2022-09-23T02:49:56;0.70;99.90
11304;DHT22;5707;49.588;12.148;2022-09-23T02:52:36;0.60;99.90
11304;DHT22;5707;49.588;12.148;2022-09-23T02:55:16;0.60;99.90
11304;DHT22;5707;49.588;12.148;2022-09-23T02:57:57;0.50;99.90
11304;DHT22;5707;49.588;12.148;2022-09-23T03:00:41;0.60;99.90
11304;DHT22;5707;49.588;12.148;2022-09-23T03:03:28;0.70;99.90
11304;DHT22;5707;49.588;12.148;2022-09-23T03:06:09;0.70;99.90
11304;DHT22;5707;49.588;12.148;2022-09-23T03:08:54;0.60;99.90
11304;DHT22;5707;49.588;12.148;2022-09-23T03:11:37;0.50;99.90
11304;DHT22;5707;49.588;12.148;2022-09-23T03:14:20;0.40;99.90
11304;DHT22;5707;49.588;12.148;2022-09-23T03:17:04;0.50;99.90
11304;DHT22;5707;49.588;12.148;2022-09-23T03:19:52;0.60;99.90
11304;DHT22;5707;49.588;12.148;2022-09-23T03:22:36;0.60;99.90
11304;DHT22;5707;49.588;12.148;2022-09-23T03:25:18;0.60;99.90
11304;DHT22;5707;49.588;12.148;2022-09-23T03:28:00;0.60;99.90
11304;DHT22;5707;49.588;12.148;2022-09-23T03:30:42;0.60;99.90
11304;DHT22;5707;49.588;12.148;2022-09-23T03:33:22;0.50;99.90
11304;DHT22;5707;49.588;12.148;2022-09-23T03:36:05;0.50;99.90
11304;DHT22;5707;49.588;12.148;2022-09-23T03:39:05;0.50;99.90
11304;DHT22;5707;49.588;12.148;2022-09-23T03:41:47;0.50;99.90
11304;DHT22;5707;49.588;12.148;2022-09-23T03:44:29;0.60;99.90
11304;DHT22;5707;49.588;12.148;2022-09-23T03:47:09;0.60;99.90
11304;DHT22;5707;49.588;12.148;2022-09-23T03:49:49;0.70;99.90
11304;DHT22;5707;49.588;12.148;2022-09-23T03:52:31;0.80;99.90
11304;DHT22;5707;49.588;12.148;2022-09-23T03:55:10;0.80;99.90
11304;DHT22;5707;49.588;12.148;2022-09-23T03:57:50;0.90;99.90
11304;DHT22;5707;49.588;12.148;2022-09-23T04:00:30;1.00;99.90
11304;DHT22;5707;49.588;12.148;2022-09-23T04:03:13;1.00;99.90
11304;DHT22;5707;49.588;12.148;2022-09-23T04:05:53;1.10;99.90
11304;DHT22;5707;49.588;12.148;2022-09-23T04:08:33;1.10;99.90
11304;DHT22;5707;49.588;12.148;2022-09-23T04:11:13;1.00;99.90
11304;DHT22;5707;49.588;12.148;2022-09-23T04:13:53;1.00;99.90
11304;DHT22;5707;49.588;12.148;2022-09-23T04:16:34;0.80;99.90
11304;DHT22;5707;49.588;12.148;2022-09-23T04:19:14;0.70;99.90
11304;DHT22;5707;49.588;12.148;2022-09-23T04:21:53;0.50;99.90
11304;DHT22;5707;49.588;12.148;2022-09-23T04:24:33;0.40;99.90
11304;DHT22;5707;49.588;12.148;2022-09-23T04:27:13;0.40;99.90
11304;DHT22;5707;49.588;12.148;2022-09-23T04:29:53;0.40;99.90
11304;DHT22;5707;49.588;12.148;2022-09-23T04:32:33;0.40;99.90
11304;DHT22;5707;49.588;12.148;2022-09-23T04:35:13;0.30;99.90
11304;DHT22;5707;49.588;12.148;2022-09-23T04:37:52;0.20;99.90
11304;DHT22;5707;49.588;12.148;2022-09-23T04:40:32;0.10;99.90
11304;DHT22;5707;49.588;12.148;2022-09-23T04:43:14;0.00;99.90
11304;DHT22;5707;49.588;12.148;2022-09-23T04:46:00;-0.10;99.90
11304;DHT22;5707;49.588;12.148;2022-09-23T04:48:41;-0.20;99.90
11304;DHT22;5707;49.588;12.148;2022-09-23T04:51:22;-0.30;99.90
11304;DHT22;5707;49.588;12.148;2022-09-23T04:54:03;-0.30;99.90
11304;DHT22;5707;49.588;12.148;2022-09-23T04:56:44;-0.30;99.90
11304;DHT22;5707;49.588;12.148;2022-09-23T04:59:24;-0.30;99.90
11304;DHT22;5707;49.588;12.148;2022-09-23T05:02:04;-0.40;99.90
11304;DHT22;5707;49.588;12.148;2022-09-23T05:04:44;-0.30;99.90
11304;DHT22;5707;49.588;12.148;2022-09-23T05:07:23;-0.30;99.90
11304;DHT22;5707;49.588;12.148;2022-09-23T05:10:03;-0.20;99.90
11304;DHT22;5707;49.588;12.148;2022-09-23T05:12:43;-0.10;99.90
11304;DHT22;5707;49.588;12.148;2022-09-23T05:15:25;-0.10;99.90
11304;DHT22;5707;49.588;12.148;2022-09-23T05:18:04;-0.10;99.90
11304;DHT22;5707;49.588;12.148;2022-09-23T05:20:44;-0.10;99.90
11304;DHT22;5707;49.588;12.148;2022-09-23T05:23:30;0.00;99.90
11304;DHT22;5707;49.588;12.148;2022-09-23T05:26:10;0.10;99.90
11304;DHT22;5707;49.588;12.148;2022-09-23T05:28:52;0.10;99.90
11304;DHT22;5707;49.588;12.148;2022-09-23T05:31:31;0.20;99.90
11304;DHT22;5707;49.588;12.148;2022-09-23T05:34:11;0.40;99.90
11304;DHT22;5707;49.588;12.148;2022-09-23T05:36:51;0.40;99.90
11304;DHT22;5707;49.588;12.148;2022-09-23T05:39:31;0.50;99.90
11304;DHT22;5707;49.588;12.148;2022-09-23T05:42:11;0.70;99.90
11304;DHT22;5707;49.588;12.148;2022-09-23T05:44:50;0.90;99.90
11304;DHT22;5707;49.588;12.148;2022-09-23T05:47:30;1.10;99.90
11304;DHT22;5707;49.588;12.148;2022-09-23T05:50:10;1.20;99.90
11304;DHT22;5707;49.588;12.148;2022-09-23T05:52:50;1.40;99.90
11304;DHT22;5707;49.588;12.148;2022-09-23T05:55:30;1.50;99.90
11304;DHT22;5707;49.588;12.148;2022-09-23T05:58:10;1.60;99.90
11304;DHT22;5707;49.588;12.148;2022-09-23T06:00:50;1.60;99.90
11304;DHT22;5707;49.588;12.148;2022-09-23T06:03:29;1.70;99.90
11304;DHT22;5707;49.588;12.148;2022-09-23T06:06:11;1.80;99.90
11304;DHT22;5707;49.588;12.148;2022-09-23T06:08:52;2.00;99.90
11304;DHT22;5707;49.588;12.148;2022-09-23T06:11:33;2.10;99.90
11304;DHT22;5707;49.588;12.148;2022-09-23T06:14:13;2.20;99.90
11304;DHT22;5707;49.588;12.148;2022-09-23T06:16:53;2.30;99.90
11304;DHT22;5707;49.588;12.148;2022-09-23T06:19:33;2.40;99.90
11304;DHT22;5707;49.588;12.148;2022-09-23T06:22:13;2.50;99.90
11304;DHT22;5707;49.588;12.148;2022-09-23T06:24:56;2.60;99.90
11304;DHT22;5707;49.588;12.148;2022-09-23T06:27:36;2.80;99.90
11304;DHT22;5707;49.588;12.148;2022-09-23T06:30:16;2.90;99.90
11304;DHT22;5707;49.588;12.148;2022-09-23T06:32:56;3.00;99.90
11304;DHT22;5707;49.588;12.148;2022-09-23T06:35:35;3.10;99.90
11304;DHT22;5707;49.588;12.148;2022-09-23T06:38:15;3.20;99.90
11304;DHT22;5707;49.588;12.148;2022-09-23T06:40:55;3.30;99.90
11304;DHT22;5707;49.588;12.148;2022-09-23T06:43:36;3.50;99.90
11304;DHT22;5707;49.588;12.148;2022-09-23T06:46:16;3.60;99.90
11304;DHT22;5707;49.588;12.148;2022-09-23T06:48:58;3.70;99.90
11304;DHT22;5707;49.588;12.148;2022-09-23T06:51:39;3.80;99.90
11304;DHT22;5707;49.588;12.148;2022-09-23T06:54:19;3.90;99.90
11304;DHT22;5707;49.588;12.148;2022-09-23T06:56:59;4.10;99.90
11304;DHT22;5707;49.588;12.148;2022-09-23T06:59:38;4.20;99.90
11304;DHT22;5707;49.588;12.148;2022-09-23T07:02:20;4.30;99.90
11304;DHT22;5707;49.588;12.148;2022-09-23T07:05:00;4.40;99.90
11304;DHT22;5707;49.588;12.148;2022-09-23T07:07:40;4.60;99.90
11304;DHT22;5707;49.588;12.148;2022-09-23T07:10:19;4.70;99.90
11304;DHT22;5707;49.588;12.148;2022-09-23T07:13:01;4.80;99.90
11304;DHT22;5707;49.588;12.148;2022-09-23T07:15:41;4.90;99.90
11304;DHT22;5707;49.588;12.148;2022-09-23T07:18:21;4.90;99.90
11304;DHT22;5707;49.588;12.148;2022-09-23T07:21:05;5.00;99.90
11304;DHT22;5707;49.588;12.148;2022-09-23T07:23:45;5.20;99.90
11304;DHT22;5707;49.588;12.148;2022-09-23T07:26:26;5.30;99.90
11304;DHT22;5707;49.588;12.148;2022-09-23T07:29:06;5.50;99.90
11304;DHT22;5707;49.588;12.148;2022-09-23T07:31:46;5.60;99.90
11304;DHT22;5707;49.588;12.148;2022-09-23T07:34:26;5.70;99.90
11304;DHT22;5707;49.588;12.148;2022-09-23T07:37:06;5.90;99.90
11304;DHT22;5707;49.588;12.148;2022-09-23T07:39:46;6.00;99.90
11304;DHT22;5707;49.588;12.148;2022-09-23T07:42:25;6.10;99.90
11304;DHT22;5707;49.588;12.148;2022-09-23T07:45:06;6.20;99.90
11304;DHT22;5707;49.588;12.148;2022-09-23T07:47:47;6.40;99.90
11304;DHT22;5707;49.588;12.148;2022-09-23T07:50:28;6.40;99.90
11304;DHT22;5707;49.588;12.148;2022-09-23T07:53:09;6.50;99.90
11304;DHT22;5707;49.588;12.148;2022-09-23T07:55:54;6.60;99.90
11304;DHT22;5707;49.588;12.148;2022-09-23T07:58:35;6.70;99.90
11304;DHT22;5707;49.588;12.148;2022-09-23T08:01:15;6.80;99.90
11304;DHT22;5707;49.588;12.148;2022-09-23T08:03:55;6.90;99.90
11304;DHT22;5707;49.588;12.148;2022-09-23T08:06:37;7.00;99.90
11304;DHT22;5707;49.588;12.148;2022-09-23T08:09:19;7.20;99.90
11304;DHT22;5707;49.588;12.148;2022-09-23T08:12:00;7.30;99.90
11304;DHT22;5707;49.588;12.148;2022-09-23T08:14:39;7.40;99.90
11304;DHT22;5707;49.588;12.148;2022-09-23T08:17:19;7.60;99.90
11304;DHT22;5707;49.588;12.148;2022-09-23T08:19:59;7.80;99.90
11304;DHT22;5707;49.588;12.148;2022-09-23T08:22:39;7.90;99.90
11304;DHT22;5707;49.588;12.148;2022-09-23T08:25:19;8.10;99.90
11304;DHT22;5707;49.588;12.148;2022-09-23T08:27:58;8.10;99.90
11304;DHT22;5707;49.588;12.148;2022-09-23T08:30:39;8.20;99.90
11304;DHT22;5707;49.588;12.148;2022-09-23T08:33:18;8.30;99.90
11304;DHT22;5707;49.588;12.148;2022-09-23T08:35:59;8.40;99.90
11304;DHT22;5707;49.588;12.148;2022-09-23T08:38:39;8.60;99.90
11304;DHT22;5707;49.588;12.148;2022-09-23T08:41:21;8.70;99.90
11304;DHT22;5707;49.588;12.148;2022-09-23T08:44:03;8.90;99.90
11304;DHT22;5707;49.588;12.148;2022-09-23T08:46:48;9.00;99.90
11304;DHT22;5707;49.588;12.148;2022-09-23T08:49:30;9.10;99.90
11304;DHT22;5707;49.588;12.148;2022-09-23T08:52:12;9.20;99.90
11304;DHT22;5707;49.588;12.148;2022-09-23T08:54:54;9.30;99.90
11304;DHT22;5707;49.588;12.148;2022-09-23T08:57:36;9.40;99.90
11304;DHT22;5707;49.588;12.148;2022-09-23T09:00:19;9.50;99.90
11304;DHT22;5707;49.588;12.148;2022-09-23T09:03:00;9.60;99.90
11304;DHT22;5707;49.588;12.148;2022-09-23T09:05:40;9.80;99.90
11304;DHT22;5707;49.588;12.148;2022-09-23T09:08:21;10.00;99.90
11304;DHT22;5707;49.588;12.148;2022-09-23T09:11:06;10.10;99.90
11304;DHT22;5707;49.588;12.148;2022-09-23T09:13:47;10.40;99.90
11304;DHT22;5707;49.588;12.148;2022-09-23T09:16:38;10.50;99.90
11304;DHT22;5707;49.588;12.148;2022-09-23T09:19:28;10.80;99.90
11304;DHT22;5707;49.588;12.148;2022-09-23T09:22:12;11.00;99.90
11304;DHT22;5707;49.588;12.148;2022-09-23T09:24:54;11.20;99.90
11304;DHT22;5707;49.588;12.148;2022-09-23T09:27:37;11.40;99.90
11304;DHT22;5707;49.588;12.148;2022-09-23T09:30:18;11.70;99.90
11304;DHT22;5707;49.588;12.148;2022-09-23T09:32:59;11.90;99.90
11304;DHT22;5707;49.588;12.148;2022-09-23T09:35:41;12.00;99.90
11304;DHT22;5707;49.588;12.148;2022-09-23T09:38:28;12.20;99.90
11304;DHT22;5707;49.588;12.148;2022-09-23T09:41:11;12.40;99.90
11304;DHT22;5707;49.588;12.148;2022-09-23T09:43:52;12.50;99.90
11304;DHT22;5707;49.588;12.148;2022-09-23T09:46:52;12.70;99.90
11304;DHT22;5707;49.588;12.148;2022-09-23T09:49:36;12.80;99.90
11304;DHT22;5707;49.588;12.148;2022-09-23T09:52:21;13.00;99.90
11304;DHT22;5707;49.588;12.148;2022-09-23T09:58:00;13.10;99.90
11304;DHT22;5707;49.588;12.148;2022-09-23T10:00:43;13.30;99.90
11304;DHT22;5707;49.588;12.148;2022-09-23T10:06:23;13.50;99.90
11304;DHT22;5707;49.588;12.148;2022-09-23T10:09:11;13.70;99.90
11304;DHT22;5707;49.588;12.148;2022-09-23T10:12:11;13.90;99.90
11304;DHT22;5707;49.588;12.148;2022-09-23T10:14:54;14.10;99.90
11304;DHT22;5707;49.588;12.148;2022-09-23T10:17:34;14.20;99.90
11304;DHT22;5707;49.588;12.148;2022-09-23T10:20:15;14.40;99.90
11304;DHT22;5707;49.588;12.148;2022-09-23T10:22:55;14.50;99.90
11304;DHT22;5707;49.588;12.148;2022-09-23T10:25:35;14.60;99.90
11304;DHT22;5707;49.588;12.148;2022-09-23T10:31:10;14.80;99.90
11304;DHT22;5707;49.588;12.148;2022-09-23T10:33:51;14.90;99.90
11304;DHT22;5707;49.588;12.148;2022-09-23T10:36:34;15.00;99.90
11304;DHT22;5707;49.588;12.148;2022-09-23T10:39:13;15.20;99.90
11304;DHT22;5707;49.588;12.148;2022-09-23T10:42:12;15.30;99.90
11304;DHT22;5707;49.588;12.148;2022-09-23T10:45:17;15.40;99.90
11304;DHT22;5707;49.588;12.148;2022-09-23T10:48:13;15.40;99.90
11304;DHT22;5707;49.588;12.148;2022-09-23T10:50:58;15.50;99.90
11304;DHT22;5707;49.588;12.148;2022-09-23T10:53:42;15.50;99.90
11304;DHT22;5707;49.588;12.148;2022-09-23T10:56:30;15.50;99.90
11304;DHT22;5707;49.588;12.148;2022-09-23T11:02:23;15.60;99.90
11304;DHT22;5707;49.588;12.148;2022-09-23T11:08:12;15.70;99.90
11304;DHT22;5707;49.588;12.148;2022-09-23T11:11:02;15.90;99.90
11304;DHT22;5707;49.588;12.148;2022-09-23T11:13:49;15.90;99.90
11304;DHT22;5707;49.588;12.148;2022-09-23T11:16:40;15.90;99.90
11304;DHT22;5707;49.588;12.148;2022-09-23T11:19:31;16.00;99.90
11304;DHT22;5707;49.588;12.148;2022-09-23T11:22:17;16.10;99.90
11304;DHT22;5707;49.588;12.148;2022-09-23T11:25:12;16.20;96.00
11304;DHT22;5707;49.588;12.148;2022-09-23T11:28:01;16.20;93.60
11304;DHT22;5707;49.588;12.148;2022-09-23T11:30:47;16.30;95.20
11304;DHT22;5707;49.588;12.148;2022-09-23T11:33:34;16.30;96.30
11304;DHT22;5707;49.588;12.148;2022-09-23T11:36:20;16.60;97.80
11304;DHT22;5707;49.588;12.148;2022-09-23T11:39:04;16.70;93.50
11304;DHT22;5707;49.588;12.148;2022-09-23T11:41:46;16.70;93.00
11304;DHT22;5707;49.588;12.148;2022-09-23T11:44:30;16.70;91.70
11304;DHT22;5707;49.588;12.148;2022-09-23T11:47:15;16.70;94.00
11304;DHT22;5707;49.588;12.148;2022-09-23T11:50:00;16.80;95.30
11304;DHT22;5707;49.588;12.148;2022-09-23T11:52:42;16.90;92.90
11304;DHT22;5707;49.588;12.148;2022-09-23T11:55:24;17.10;93.50
11304;DHT22;5707;49.588;12.148;2022-09-23T11:58:07;17.20;86.60
11304;DHT22;5707;49.588;12.148;2022-09-23T12:00:50;17.30;86.50
11304;DHT22;5707;49.588;12.148;2022-09-23T12:03:34;17.50;81.90
11304;DHT22;5707;49.588;12.148;2022-09-23T12:06:20;17.50;79.70
11304;DHT22;5707;49.588;12.148;2022-09-23T12:09:01;17.50;83.90
11304;DHT22;5707;49.588;12.148;2022-09-23T12:11:45;17.70;77.20
11304;DHT22;5707;49.588;12.148;2022-09-23T12:14:28;17.80;73.00
11304;DHT22;5707;49.588;12.148;2022-09-23T12:17:18;17.80;75.60
11304;DHT22;5707;49.588;12.148;2022-09-23T12:20:06;17.80;73.40
11304;DHT22;5707;49.588;12.148;2022-09-23T12:22:53;17.80;72.70
11304;DHT22;5707;49.588;12.148;2022-09-23T12:25:38;17.80;77.60
11304;DHT22;5707;49.588;12.148;2022-09-23T12:28:24;17.90;70.90
11304;DHT22;5707;49.588;12.148;2022-09-23T12:31:07;17.90;70.20
11304;DHT22;5707;49.588;12.148;2022-09-23T12:33:48;17.90;75.10
11304;DHT22;5707;49.588;12.148;2022-09-23T12:36:30;17.80;67.80
11304;DHT22;5707;49.588;12.148;2022-09-23T12:39:14;17.80;68.10
11304;DHT22;5707;49.588;12.148;2022-09-23T12:41:56;18.00;69.80
11304;DHT22;5707;49.588;12.148;2022-09-23T12:44:37;18.00;67.00
11304;DHT22;5707;49.588;12.148;2022-09-23T12:47:39;18.00;68.10
11304;DHT22;5707;49.588;12.148;2022-09-23T12:56:15;17.50;69.10
11304;DHT22;5707;49.588;12.148;2022-09-23T12:59:08;17.40;67.80
11304;DHT22;5707;49.588;12.148;2022-09-23T13:01:49;17.30;70.40
11304;DHT22;5707;49.588;12.148;2022-09-23T13:04:33;17.20;72.10
11304;DHT22;5707;49.588;12.148;2022-09-23T13:07:31;17.10;68.10
11304;DHT22;5707;49.588;12.148;2022-09-23T13:10:14;17.10;69.90
11304;DHT22;5707;49.588;12.148;2022-09-23T13:12:54;17.20;67.90
11304;DHT22;5707;49.588;12.148;2022-09-23T13:15:34;17.20;68.80
11304;DHT22;5707;49.588;12.148;2022-09-23T13:24:35;17.20;66.20
11304;DHT22;5707;49.588;12.148;2022-09-23T13:27:18;17.20;70.30
11304;DHT22;5707;49.588;12.148;2022-09-23T13:30:00;17.00;68.30
11304;DHT22;5707;49.588;12.148;2022-09-23T13:32:43;16.80;75.00
11304;DHT22;5707;49.588;12.148;2022-09-23T13:35:26;16.60;68.90
11304;DHT22;5707;49.588;12.148;2022-09-23T13:38:10;16.60;68.60
11304;DHT22;5707;49.588;12.148;2022-09-23T13:40:51;16.70;72.90
11304;DHT22;5707;49.588;12.148;2022-09-23T13:43:33;16.70;64.40
11304;DHT22;5707;49.588;12.148;2022-09-23T13:46:18;16.80;70.60
11304;DHT22;5707;49.588;12.148;2022-09-23T13:48:58;16.90;71.70
11304;DHT22;5707;49.588;12.148;2022-09-23T13:51:40;17.00;72.00
11304;DHT22;5707;49.588;12.148;2022-09-23T13:54:27;16.90;71.30
11304;DHT22;5707;49.588;12.148;2022-09-23T13:57:20;16.80;68.00
11304;DHT22;5707;49.588;12.148;2022-09-23T14:00:14;16.70;68.60
11304;DHT22;5707;49.588;12.148;2022-09-23T14:02:54;16.60;72.70
11304;DHT22;5707;49.588;12.148;2022-09-23T14:05:34;16.60;73.60
11304;DHT22;5707;49.588;12.148;2022-09-23T14:08:14;16.60;72.70
11304;DHT22;5707;49.588;12.148;2022-09-23T14:10:54;16.70;72.00
11304;DHT22;5707;49.588;12.148;2022-09-23T14:13:36;16.60;72.10
11304;DHT22;5707;49.588;12.148;2022-09-23T14:16:18;16.50;72.80
11304;DHT22;5707;49.588;12.148;2022-09-23T14:18:58;16.30;69.10
11304;DHT22;5707;49.588;12.148;2022-09-23T14:21:40;16.00;75.80
11304;DHT22;5707;49.588;12.148;2022-09-23T14:24:22;15.80;77.40
11304;DHT22;5707;49.588;12.148;2022-09-23T14:27:07;15.60;75.30
11304;DHT22;5707;49.588;12.148;2022-09-23T14:29:52;15.50;77.20
11304;DHT22;5707;49.588;12.148;2022-09-23T14:32:32;15.40;78.60
11304;DHT22;5707;49.588;12.148;2022-09-23T14:35:17;15.40;78.90
11304;DHT22;5707;49.588;12.148;2022-09-23T14:37:58;15.40;79.40
11304;DHT22;5707;49.588;12.148;2022-09-23T14:40:52;15.40;82.40
11304;DHT22;5707;49.588;12.148;2022-09-23T14:43:53;15.40;82.90
11304;DHT22;5707;49.588;12.148;2022-09-23T14:46:34;15.30;77.20
11304;DHT22;5707;49.588;12.148;2022-09-23T14:49:15;15.30;80.40
11304;DHT22;5707;49.588;12.148;2022-09-23T14:51:56;15.20;82.20
11304;DHT22;5707;49.588;12.148;2022-09-23T14:54:39;15.20;81.40
11304;DHT22;5707;49.588;12.148;2022-09-23T14:57:27;15.10;90.80
11304;DHT22;5707;49.588;12.148;2022-09-23T15:00:12;15.00;92.90
11304;DHT22;5707;49.588;12.148;2022-09-23T15:02:57;14.90;90.30
11304;DHT22;5707;49.588;12.148;2022-09-23T15:05:39;14.90;80.20
11304;DHT22;5707;49.588;12.148;2022-09-23T15:08:22;15.00;80.80
11304;DHT22;5707;49.588;12.148;2022-09-23T15:11:03;15.10;88.80
11304;DHT22;5707;49.588;12.148;2022-09-23T15:13:45;15.20;81.40
11304;DHT22;5707;49.588;12.148;2022-09-23T15:16:28;15.20;90.00
11304;DHT22;5707;49.588;12.148;2022-09-23T15:19:13;15.20;78.30
11304;DHT22;5707;49.588;12.148;2022-09-23T15:21:53;15.20;83.80
11304;DHT22;5707;49.588;12.148;2022-09-23T15:24:34;15.10;84.90
11304;DHT22;5707;49.588;12.148;2022-09-23T15:27:26;15.00;81.10
11304;DHT22;5707;49.588;12.148;2022-09-23T15:30:11;14.80;79.30
11304;DHT22;5707;49.588;12.148;2022-09-23T15:32:53;14.70;82.30
11304;DHT22;5707;49.588;12.148;2022-09-23T15:35:34;14.80;75.60
11304;DHT22;5707;49.588;12.148;2022-09-23T15:38:15;14.70;79.50
11304;DHT22;5707;49.588;12.148;2022-09-23T15:40:56;14.60;82.50
11304;DHT22;5707;49.588;12.148;2022-09-23T15:43:36;14.40;85.70
11304;DHT22;5707;49.588;12.148;2022-09-23T15:46:18;14.30;90.20
11304;DHT22;5707;49.588;12.148;2022-09-23T15:48:59;14.30;85.80
11304;DHT22;5707;49.588;12.148;2022-09-23T15:51:40;14.20;84.80
11304;DHT22;5707;49.588;12.148;2022-09-23T15:54:20;14.20;81.20
11304;DHT22;5707;49.588;12.148;2022-09-23T15:57:00;14.20;82.30
11304;DHT22;5707;49.588;12.148;2022-09-23T15:59:40;14.10;80.50
11304;DHT22;5707;49.588;12.148;2022-09-23T16:02:21;14.10;81.20
11304;DHT22;5707;49.588;12.148;2022-09-23T16:05:03;14.10;83.70
11304;DHT22;5707;49.588;12.148;2022-09-23T16:07:46;14.00;85.00
11304;DHT22;5707;49.588;12.148;2022-09-23T16:10:25;13.90;86.40
11304;DHT22;5707;49.588;12.148;2022-09-23T16:13:08;13.70;91.20
11304;DHT22;5707;49.588;12.148;2022-09-23T16:15:48;13.60;99.90
11304;DHT22;5707;49.588;12.148;2022-09-23T16:18:28;13.30;99.90
11304;DHT22;5707;49.588;12.148;2022-09-23T16:21:09;13.10;99.90
11304;DHT22;5707;49.588;12.148;2022-09-23T16:23:49;12.90;99.90
11304;DHT22;5707;49.588;12.148;2022-09-23T16:26:31;12.70;99.90
11304;DHT22;5707;49.588;12.148;2022-09-23T16:29:12;12.40;99.90
11304;DHT22;5707;49.588;12.148;2022-09-23T16:31:52;12.20;99.90
11304;DHT22;5707;49.588;12.148;2022-09-23T16:34:33;11.90;99.90
11304;DHT22;5707;49.588;12.148;2022-09-23T16:37:13;11.70;99.90
11304;DHT22;5707;49.588;12.148;2022-09-23T16:39:55;11.40;99.90
11304;DHT22;5707;49.588;12.148;2022-09-23T16:42:35;11.20;99.90
11304;DHT22;5707;49.588;12.148;2022-09-23T16:45:17;10.90;99.90
11304;DHT22;5707;49.588;12.148;2022-09-23T16:47:57;10.60;99.90
11304;DHT22;5707;49.588;12.148;2022-09-23T16:50:37;10.30;99.90
11304;DHT22;5707;49.588;12.148;2022-09-23T16:53:20;10.10;99.90
11304;DHT22;5707;49.588;12.148;2022-09-23T16:56:03;9.80;99.90
11304;DHT22;5707;49.588;12.148;2022-09-23T16:58:47;9.50;99.90
11304;DHT22;5707;49.588;12.148;2022-09-23T17:01:28;9.20;99.90
11304;DHT22;5707;49.588;12.148;2022-09-23T17:04:25;8.80;99.90
11304;DHT22;5707;49.588;12.148;2022-09-23T17:07:05;8.50;99.90
11304;DHT22;5707;49.588;12.148;2022-09-23T17:09:45;8.20;99.90
11304;DHT22;5707;49.588;12.148;2022-09-23T17:12:25;8.00;99.90
11304;DHT22;5707;49.588;12.148;2022-09-23T17:15:08;7.90;99.90
11304;DHT22;5707;49.588;12.148;2022-09-23T17:17:49;7.70;99.90
11304;DHT22;5707;49.588;12.148;2022-09-23T17:20:29;7.50;99.90
11304;DHT22;5707;49.588;12.148;2022-09-23T17:23:09;7.40;99.90
11304;DHT22;5707;49.588;12.148;2022-09-23T17:25:49;7.20;99.90
11304;DHT22;5707;49.588;12.148;2022-09-23T17:28:28;7.10;99.90
11304;DHT22;5707;49.588;12.148;2022-09-23T17:31:08;7.00;99.90
11304;DHT22;5707;49.588;12.148;2022-09-23T17:33:48;6.90;99.90
11304;DHT22;5707;49.588;12.148;2022-09-23T17:36:28;6.80;99.90
11304;DHT22;5707;49.588;12.148;2022-09-23T17:39:08;6.70;99.90
11304;DHT22;5707;49.588;12.148;2022-09-23T17:41:48;6.60;99.90
11304;DHT22;5707;49.588;12.148;2022-09-23T17:44:27;6.60;99.90
11304;DHT22;5707;49.588;12.148;2022-09-23T17:47:07;6.60;99.90